首页
METAR-TAF:

METAR-TAF

机场 :

Enid, 奧克拉荷馬州, 美国

纬度: 36-22-45N, 经度: 097-47-28W, 海拔: 356米

当前天气观测

该预报发布于44分钟前的15:45 UTC
风速14节,风向,有时为20节阵风
温度 36°C
湿度 35%
气压 1013 hPa
能見度: 16.1公里
散云层高于11000英尺
多云层高于13000英尺

METAR: KWDG 241545Z 19014G20KT 10SM SCT110 BKN130 36/18 A2991

时间: 11:29 (16:29 UTC)


TAF: 丢失

超过4000个机场的气象观测和天气预报(METAR&TAF报告)。

可查询的气象台以黄色和红色小点在地图上表示。

将鼠标移到小点上方,可查看气象台名称。

然后点击查看天气观测和预报。

如需切换地图:点击带黑十字的绿色按钮放大地图;点击带横线的绿色按钮缩小地图;或者点击绿色箭头查看邻近地区的地图。


METAR-TAF: